createdAt,value
2023-04-02T00:03:10.863Z,93.60
2023-04-02T00:09:15.392Z,95.15
2023-04-02T00:15:17.387Z,95.09
2023-04-02T00:21:42.296Z,93.86
2023-04-02T00:27:44.355Z,94.06
2023-04-02T00:33:48.519Z,94.27
2023-04-02T00:39:55.594Z,94.96
2023-04-02T00:46:03.001Z,94.48
2023-04-02T00:52:16.515Z,94.46
2023-04-02T00:58:35.537Z,93.85
2023-04-02T01:04:37.504Z,94.23
2023-04-02T01:11:02.787Z,94.44
2023-04-02T01:17:11.551Z,94.94
2023-04-02T01:23:35.559Z,95.05
2023-04-02T01:29:42.265Z,93.86
2023-04-02T01:35:50.138Z,94.39
2023-04-02T01:42:36.127Z,95.75
2023-04-02T01:48:39.885Z,96.38
2023-04-02T01:54:42.358Z,95.09
2023-04-02T02:00:51.984Z,94.45
2023-04-02T02:06:54.076Z,95.50
2023-04-02T02:13:00.230Z,94.77
2023-04-02T02:19:04.355Z,95.16
2023-04-02T02:25:16.450Z,94.50
2023-04-02T02:31:33.050Z,95.65
2023-04-02T02:37:43.892Z,94.79
2023-04-02T02:44:08.495Z,96.41
2023-04-02T02:50:25.874Z,95.47
2023-04-02T02:56:31.234Z,96.36
2023-04-02T03:02:39.080Z,96.66
2023-04-02T03:08:49.019Z,95.36
2023-04-02T03:15:36.757Z,95.37
2023-04-02T03:22:35.415Z,95.49
2023-04-02T03:28:50.103Z,94.58
2023-04-02T03:35:01.677Z,93.14
2023-04-02T03:41:39.493Z,94.46
2023-04-02T03:48:05.541Z,94.31
2023-04-02T03:54:15.587Z,92.88
2023-04-02T04:01:05.812Z,93.39
2023-04-02T04:07:20.767Z,93.28
2023-04-02T04:13:50.555Z,93.17
2023-04-02T04:20:22.051Z,93.41
2023-04-02T04:26:53.409Z,94.12
2023-04-02T04:33:11.047Z,92.95
2023-04-02T04:39:23.445Z,92.52
2023-04-02T04:45:44.414Z,92.62
2023-04-02T04:52:09.033Z,91.72
2023-04-02T04:59:00.902Z,93.17
2023-04-02T05:05:04.028Z,91.86
2023-04-02T05:11:36.687Z,91.74
2023-04-02T05:17:42.653Z,90.52
2023-04-02T05:23:59.563Z,89.78
2023-04-02T05:30:21.247Z,89.29
2023-04-02T05:36:27.992Z,88.94
2023-04-02T05:42:36.977Z,87.99
2023-04-02T05:48:46.180Z,89.46
2023-04-02T05:54:54.763Z,88.30
2023-04-02T06:01:24.089Z,88.36
2023-04-02T06:07:54.958Z,87.31
2023-04-02T06:13:57.374Z,87.46
2023-04-02T06:20:01.969Z,85.67
2023-04-02T06:26:38.028Z,85.90
2023-04-02T06:32:39.951Z,85.21
2023-04-02T06:38:43.973Z,84.08
2023-04-02T06:44:46.452Z,85.70
2023-04-02T06:51:16.765Z,86.04
2023-04-02T06:57:18.975Z,85.62
2023-04-02T07:03:30.929Z,85.48
2023-04-02T07:09:33.001Z,86.21
2023-04-02T07:15:35.122Z,84.54
2023-04-02T07:21:37.457Z,84.96
2023-04-02T07:27:39.375Z,83.31
2023-04-02T07:33:42.206Z,83.58
2023-04-02T07:39:44.146Z,82.93
2023-04-02T07:45:46.099Z,83.65
2023-04-02T07:51:48.586Z,84.11
2023-04-02T07:57:57.192Z,81.80
2023-04-02T08:03:59.105Z,82.06
2023-04-02T08:10:01.654Z,81.56
2023-04-02T08:16:05.073Z,81.46
2023-04-02T08:22:06.967Z,79.29
2023-04-02T08:28:08.907Z,75.73
2023-04-02T08:34:11.048Z,74.30
2023-04-02T08:40:31.949Z,75.74
2023-04-02T08:46:51.362Z,76.01
2023-04-02T08:52:53.358Z,77.04
2023-04-02T08:59:01.863Z,76.41
2023-04-02T09:05:15.532Z,75.27
2023-04-02T09:11:47.936Z,75.16
2023-04-02T09:18:18.989Z,71.86
2023-04-02T09:24:20.925Z,71.51
2023-04-02T09:30:31.972Z,71.21
2023-04-02T09:36:38.652Z,69.67
2023-04-02T09:42:40.885Z,65.90
2023-04-02T09:48:58.514Z,63.08
2023-04-02T09:55:15.973Z,65.14
2023-04-02T10:01:56.621Z,67.95
2023-04-02T10:08:25.389Z,66.95
2023-04-02T10:14:48.264Z,67.11
2023-04-02T10:20:52.621Z,69.25
2023-04-02T10:27:29.467Z,71.06
2023-04-02T10:33:37.322Z,70.96
2023-04-02T10:39:53.498Z,72.38
2023-04-02T10:46:43.151Z,71.28
2023-04-02T10:53:38.590Z,70.76
2023-04-02T11:00:06.052Z,71.39
2023-04-02T11:06:27.643Z,70.53
2023-04-02T11:12:43.389Z,69.75
2023-04-02T11:19:31.916Z,70.63
2023-04-02T11:25:34.400Z,71.44
2023-04-02T11:31:37.687Z,72.51
2023-04-02T11:37:46.114Z,72.04
2023-04-02T11:43:49.940Z,71.84
2023-04-02T11:49:54.812Z,69.67
2023-04-02T11:56:29.240Z,70.94
2023-04-02T12:02:53.891Z,70.94
2023-04-02T12:09:29.206Z,69.88
2023-04-02T12:15:48.722Z,69.82
2023-04-02T12:21:53.076Z,69.73
2023-04-02T12:28:10.727Z,67.72
2023-04-02T12:34:23.052Z,68.07
2023-04-02T12:40:26.560Z,67.29
2023-04-02T12:46:34.596Z,65.60
2023-04-02T12:52:43.381Z,64.11
2023-04-02T12:58:56.949Z,63.07
2023-04-02T13:05:01.678Z,62.69
2023-04-02T13:11:06.264Z,62.07
2023-04-02T13:17:46.800Z,53.79
2023-04-02T13:23:48.734Z,55.23
2023-04-02T13:29:50.702Z,57.58
2023-04-02T13:35:52.986Z,56.76
2023-04-02T13:42:04.111Z,53.91
2023-04-02T13:48:06.571Z,49.94
2023-04-02T13:54:23.846Z,42.91
2023-04-02T14:00:26.693Z,39.97
2023-04-02T14:07:08.770Z,42.66
2023-04-02T14:13:41.194Z,43.99
2023-04-02T14:20:30.622Z,42.90
2023-04-02T14:27:11.361Z,45.10
2023-04-02T14:33:44.295Z,47.97
2023-04-02T14:40:10.735Z,51.30
2023-04-02T14:46:12.829Z,44.97
2023-04-02T14:52:20.125Z,37.95
2023-04-02T14:58:46.804Z,38.04
2023-04-02T15:05:01.640Z,41.33
2023-04-02T15:11:23.519Z,44.14
2023-04-02T15:17:25.524Z,47.28
2023-04-02T15:23:55.014Z,50.36
2023-04-02T15:30:23.263Z,47.30
2023-04-02T15:36:48.798Z,49.57
2023-04-02T15:43:11.558Z,52.76
2023-04-02T15:49:54.621Z,54.18
2023-04-02T15:56:04.867Z,55.75
2023-04-02T16:02:51.718Z,57.34
2023-04-02T16:09:32.819Z,59.04
2023-04-02T16:15:43.602Z,59.48
2023-04-02T16:22:23.464Z,55.66
2023-04-02T16:28:35.798Z,57.79
2023-04-02T16:34:37.790Z,59.32
2023-04-02T16:41:32.949Z,59.09
2023-04-02T16:47:52.378Z,60.75
2023-04-02T16:54:11.390Z,59.86
2023-04-02T17:00:34.553Z,60.18
2023-04-02T17:07:02.268Z,60.62
2023-04-02T17:13:14.643Z,59.77
2023-04-02T17:19:19.303Z,57.62
2023-04-02T17:25:30.219Z,60.32
2023-04-02T17:31:35.245Z,61.39
2023-04-02T17:38:31.866Z,61.02
2023-04-02T17:45:01.169Z,62.06
2023-04-02T17:52:08.772Z,61.65
2023-04-02T17:58:54.372Z,62.87
2023-04-02T18:05:40.484Z,62.49
2023-04-02T18:11:51.085Z,63.80
2023-04-02T18:18:47.081Z,64.38
2023-04-02T18:25:30.728Z,63.70
2023-04-02T18:32:29.104Z,62.44
2023-04-02T18:38:36.461Z,62.37
2023-04-02T18:45:04.006Z,62.95
2023-04-02T18:51:13.772Z,61.47
2023-04-02T18:57:28.449Z,61.67
2023-04-02T19:03:56.482Z,62.54
2023-04-02T19:10:28.577Z,63.06
2023-04-02T19:17:22.469Z,63.16
2023-04-02T19:23:50.105Z,61.87
2023-04-02T19:30:34.237Z,63.92
2023-04-02T19:36:57.118Z,63.01
2023-04-02T19:42:59.064Z,62.39
2023-04-02T19:49:32.385Z,63.72
2023-04-02T19:55:34.720Z,63.68
2023-04-02T20:01:37.053Z,63.71
2023-04-02T20:07:39.512Z,63.40
2023-04-02T20:13:41.444Z,65.41
2023-04-02T20:19:43.420Z,65.02
2023-04-02T20:25:53.126Z,64.87
2023-04-02T20:31:55.278Z,65.05
2023-04-02T20:37:57.522Z,63.91
2023-04-02T20:43:59.407Z,63.81
2023-04-02T20:50:01.543Z,64.46
2023-04-02T20:56:10.274Z,63.84
2023-04-02T21:02:12.487Z,64.39
2023-04-02T21:08:14.948Z,65.17
2023-04-02T21:14:19.106Z,66.37
2023-04-02T21:20:21.069Z,65.91
2023-04-02T21:26:23.501Z,66.71
2023-04-02T21:32:25.429Z,66.80
2023-04-02T21:38:27.493Z,68.64
2023-04-02T21:44:29.624Z,69.08
2023-04-02T21:50:31.488Z,69.87
2023-04-02T21:56:37.070Z,70.55
2023-04-02T22:02:39.066Z,71.40
2023-04-02T22:08:43.740Z,72.45
2023-04-02T22:14:45.962Z,73.81
2023-04-02T22:20:47.827Z,74.12
2023-04-02T22:26:50.039Z,75.21
2023-04-02T22:32:52.137Z,75.59
2023-04-02T22:38:55.049Z,75.47
2023-04-02T22:44:56.975Z,76.32
2023-04-02T22:50:59.029Z,76.40
2023-04-02T22:57:01.171Z,76.63
2023-04-02T23:03:03.453Z,77.28
2023-04-02T23:09:05.569Z,77.80
2023-04-02T23:15:08.733Z,77.86
2023-04-02T23:21:11.063Z,78.11
2023-04-02T23:27:13.050Z,79.58
2023-04-02T23:33:14.958Z,79.50
2023-04-02T23:39:16.969Z,79.86
2023-04-02T23:45:18.871Z,79.96
2023-04-02T23:51:21.504Z,80.77
2023-04-02T23:57:23.432Z,80.79
